Time;durP1;ratioP1;P1;durP2;ratioP2;P2;SDS_P1;SDS_P2;PMS_P1;PMS_P2;Temp;Humidity;BMP_temperature;BMP_pressure;BME280_temperature;BME280_humidity;BME280_pressure;Samples;Min_cycle;Max_cycle;Signal;HPM_P1;HPM_P2
2023/06/30 04:30:11;;;;;;;7.07;2.20;;;14.70;71.00;;;;;;5969084;23;20018;-79
2023/06/30 04:32:36;;;;;;;8.30;2.58;;;14.70;70.70;;;;;;4863683;29;20044;-78
2023/06/30 04:35:02;;;;;;;6.32;2.20;;;14.70;71.00;;;;;;4896834;29;20029;-78
2023/06/30 04:37:28;;;;;;;6.82;2.42;;;14.70;70.80;;;;;;4893777;29;20033;-78
2023/06/30 04:39:58;;;;;;;7.40;2.42;;;14.70;71.10;;;;;;4896918;29;20060;-78
2023/06/30 04:42:27;;;;;;;5.65;2.10;;;14.70;71.20;;;;;;4897275;29;20396;-75
2023/06/30 04:44:52;;;;;;;5.60;1.90;;;14.70;71.20;;;;;;4895960;29;20628;-74
2023/06/30 04:47:18;;;;;;;6.72;2.42;;;14.70;71.20;;;;;;4896379;29;20032;-74
2023/06/30 04:49:44;;;;;;;4.65;2.50;;;14.70;71.20;;;;;;4897285;29;20041;-75
2023/06/30 04:52:11;;;;;;;4.72;2.20;;;14.80;70.90;;;;;;4896433;29;20076;-74
2023/06/30 04:54:37;;;;;;;5.85;2.90;;;14.80;70.90;;;;;;4861805;29;20154;-75
2023/06/30 04:57:04;;;;;;;6.15;2.30;;;14.80;70.60;;;;;;4878436;29;20382;-75
2023/06/30 04:59:30;;;;;;;4.55;1.95;;;14.80;71.00;;;;;;4895292;29;20040;-75
2023/06/30 05:01:55;;;;;;;7.50;2.15;;;14.80;71.10;;;;;;4890332;29;20029;-75
2023/06/30 05:04:21;;;;;;;6.57;2.70;;;14.80;70.90;;;;;;4898205;29;20097;-75
2023/06/30 05:06:47;;;;;;;4.75;2.25;;;14.80;70.90;;;;;;4882972;29;20024;-75
2023/06/30 05:09:12;;;;;;;5.57;2.15;;;14.90;70.70;;;;;;4898282;29;20163;-74
2023/06/30 05:11:38;;;;;;;6.65;2.72;;;14.90;70.80;;;;;;4898172;29;20168;-75
2023/06/30 05:14:04;;;;;;;6.75;2.00;;;14.90;70.90;;;;;;4904656;29;20033;-74
2023/06/30 05:16:30;;;;;;;6.22;2.33;;;15.00;70.60;;;;;;4909120;29;20172;-76
2023/06/30 05:18:55;;;;;;;6.70;1.95;;;15.00;70.50;;;;;;4897022;29;20092;-78
2023/06/30 05:21:21;;;;;;;5.95;2.28;;;15.00;70.70;;;;;;4897009;29;20092;-77
2023/06/30 05:23:47;;;;;;;6.00;2.20;;;15.00;70.30;;;;;;4881185;29;20036;-77
2023/06/30 05:26:12;;;;;;;4.72;2.28;;;15.00;70.40;;;;;;4881767;29;20496;-77
2023/06/30 05:28:38;;;;;;;6.43;2.42;;;15.00;70.70;;;;;;4914324;29;20036;-78
2023/06/30 05:31:05;;;;;;;5.22;2.20;;;15.10;70.40;;;;;;4883199;29;20073;-78
2023/06/30 05:33:30;;;;;;;4.50;2.20;;;15.00;70.40;;;;;;4899794;29;20024;-81
2023/06/30 05:35:56;;;;;;;5.95;2.00;;;15.10;70.20;;;;;;4899015;29;20066;-79
2023/06/30 05:38:22;;;;;;;6.15;2.28;;;15.10;69.90;;;;;;4900201;29;20432;-79
2023/06/30 05:40:47;;;;;;;7.95;2.20;;;15.10;70.40;;;;;;4900241;29;20025;-79
2023/06/30 05:43:13;;;;;;;7.63;2.70;;;15.20;70.30;;;;;;4899328;29;20823;-79
2023/06/30 05:45:39;;;;;;;4.88;2.03;;;15.20;70.50;;;;;;4899252;29;20156;-79
2023/06/30 05:48:05;;;;;;;5.05;2.25;;;15.20;70.50;;;;;;4910260;29;20527;-79
2023/06/30 05:50:30;;;;;;;6.35;2.20;;;15.30;70.50;;;;;;4883104;29;20032;-79
2023/06/30 05:52:56;;;;;;;5.53;2.10;;;15.30;70.50;;;;;;4899765;29;20096;-79
2023/06/30 05:55:22;;;;;;;5.20;2.13;;;15.30;70.50;;;;;;4883066;29;20032;-79
2023/06/30 05:57:48;;;;;;;6.32;2.50;;;15.30;70.50;;;;;;4882690;29;20486;-79
2023/06/30 06:00:14;;;;;;;6.18;2.17;;;15.40;70.50;;;;;;4900177;29;20028;-79
2023/06/30 06:02:39;;;;;;;4.25;2.15;;;15.40;70.40;;;;;;4882650;29;20063;-79
2023/06/30 06:05:06;;;;;;;5.65;2.08;;;15.50;70.10;;;;;;4897697;29;20500;-79
2023/06/30 06:07:32;;;;;;;6.70;1.90;;;15.50;70.50;;;;;;4916059;29;20037;-79
2023/06/30 06:09:57;;;;;;;5.35;2.03;;;15.60;70.20;;;;;;4903054;29;20036;-79
2023/06/30 06:12:23;;;;;;;7.57;2.13;;;15.70;70.20;;;;;;4903760;29;20032;-79
2023/06/30 06:14:48;;;;;;;6.10;2.13;;;15.70;70.10;;;;;;4902382;29;20033;-79
2023/06/30 06:17:14;;;;;;;8.05;2.60;;;15.80;70.20;;;;;;4887170;29;20048;-79
2023/06/30 06:19:40;;;;;;;5.43;2.08;;;15.80;69.80;;;;;;4903141;29;20020;-79
2023/06/30 06:22:06;;;;;;;5.90;2.60;;;15.80;69.50;;;;;;4902835;29;20501;-79
2023/06/30 06:24:32;;;;;;;4.15;1.80;;;15.90;69.50;;;;;;4903120;29;20025;-79
2023/06/30 06:26:58;;;;;;;5.43;2.00;;;16.00;69.40;;;;;;4887125;29;20424;-79
2023/06/30 06:29:23;;;;;;;7.85;2.00;;;16.00;69.70;;;;;;4886692;29;20084;-79
2023/06/30 06:31:52;;;;;;;3.90;1.80;;;16.00;69.40;;;;;;4885464;29;20044;-79
2023/06/30 06:34:21;;;;;;;6.15;1.90;;;16.00;69.50;;;;;;4903047;29;20032;-79
2023/06/30 06:36:47;;;;;;;4.28;1.58;;;16.20;69.40;;;;;;4901821;29;20031;-79
2023/06/30 06:39:14;;;;;;;3.85;1.75;;;16.20;69.40;;;;;;4886402;29;20025;-79
2023/06/30 06:41:40;;;;;;;5.30;2.05;;;16.30;69.00;;;;;;4886177;29;20036;-79
2023/06/30 06:44:05;;;;;;;4.15;2.05;;;16.30;68.80;;;;;;4886055;29;20036;-79
2023/06/30 06:46:31;;;;;;;5.30;2.08;;;16.40;68.80;;;;;;4901396;29;20033;-79
2023/06/30 06:48:57;;;;;;;4.38;1.83;;;16.40;68.80;;;;;;4903124;29;20028;-79
2023/06/30 06:51:23;;;;;;;7.75;2.15;;;16.50;69.00;;;;;;4901825;29;20036;-80
2023/06/30 06:53:51;;;;;;;4.32;1.98;;;16.60;68.80;;;;;;4902712;29;20020;-79
2023/06/30 06:56:17;;;;;;;4.13;1.80;;;16.70;68.60;;;;;;4901320;29;20044;-79
2023/06/30 06:58:43;;;;;;;4.95;2.05;;;16.70;68.90;;;;;;4902642;29;20043;-79
2023/06/30 07:01:10;;;;;;;5.72;2.28;;;16.80;68.30;;;;;;4901980;29;20160;-79
2023/06/30 07:03:35;;;;;;;5.57;2.30;;;16.90;68.50;;;;;;4902779;29;20111;-79
2023/06/30 07:06:01;;;;;;;5.22;2.28;;;17.00;68.60;;;;;;4885819;29;20067;-80
2023/06/30 07:08:28;;;;;;;5.85;2.28;;;17.10;67.90;;;;;;4886607;29;20029;-79
2023/06/30 07:10:54;;;;;;;6.70;2.20;;;17.20;67.80;;;;;;4885041;29;20408;-79
2023/06/30 07:13:20;;;;;;;7.28;2.40;;;17.30;67.90;;;;;;4885796;29;20024;-79
2023/06/30 07:15:50;;;;;;;4.65;2.20;;;17.30;67.40;;;;;;4881686;29;20488;-79
2023/06/30 07:18:19;;;;;;;7.80;2.13;;;17.40;66.90;;;;;;4883873;29;20077;-79
2023/06/30 07:20:47;;;;;;;4.65;1.65;;;17.60;66.80;;;;;;4877733;29;20044;-79
2023/06/30 07:23:13;;;;;;;4.03;1.85;;;17.80;67.10;;;;;;4902591;29;20200;-80
2023/06/30 07:25:39;;;;;;;5.20;1.65;;;17.80;66.10;;;;;;4902462;29;20063;-80
2023/06/30 07:28:04;;;;;;;4.07;1.63;;;18.00;65.60;;;;;;4902460;29;20044;-80
2023/06/30 07:30:30;;;;;;;4.05;1.40;;;18.20;65.30;;;;;;4901538;29;20064;-80
2023/06/30 07:32:55;;;;;;;3.92;1.67;;;18.40;64.10;;;;;;4901407;29;20522;-80
2023/06/30 07:35:22;;;;;;;3.38;1.30;;;18.70;64.20;;;;;;4901657;29;20060;-81
2023/06/30 07:37:49;;;;;;;5.63;1.48;;;19.00;62.30;;;;;;4904153;29;20030;-82
2023/06/30 07:40:15;;;;;;;6.05;1.30;;;19.40;61.20;;;;;;4892128;29;20028;-82
2023/06/30 07:42:42;;;;;;;4.32;1.10;;;19.80;59.70;;;;;;4894745;29;20139;-82
2023/06/30 07:45:09;;;;;;;4.47;1.70;;;20.10;58.00;;;;;;4910081;29;20063;-82
2023/06/30 07:47:36;;;;;;;4.97;1.30;;;20.70;56.80;;;;;;4904572;29;20028;-82
2023/06/30 07:50:03;;;;;;;5.38;2.00;;;21.80;54.00;;;;;;4900921;29;20052;-85
2023/06/30 07:52:29;;;;;;;3.78;1.20;;;23.40;50.40;;;;;;4902042;29;20028;-84
2023/06/30 07:54:55;;;;;;;4.13;1.25;;;25.60;45.50;;;;;;4901903;29;20074;-86
2023/06/30 07:57:24;;;;;;;3.95;1.20;;;26.20;43.50;;;;;;4885655;29;20060;-83
2023/06/30 07:59:49;;;;;;;2.17;0.95;;;25.70;43.20;;;;;;4900824;29;20029;-79
2023/06/30 08:02:17;;;;;;;3.33;1.02;;;24.60;44.40;;;;;;4898854;29;20031;-80
2023/06/30 08:04:43;;;;;;;3.78;1.00;;;23.80;45.80;;;;;;4886693;29;20387;-78
2023/06/30 08:07:08;;;;;;;4.57;1.30;;;23.30;46.50;;;;;;4903428;29;20028;-79
2023/06/30 08:09:34;;;;;;;3.13;1.00;;;23.00;48.00;;;;;;4902463;29;20043;-79
2023/06/30 08:12:00;;;;;;;7.65;1.63;;;23.00;47.80;;;;;;4908244;29;20032;-78
2023/06/30 08:14:25;;;;;;;3.75;1.27;;;22.50;48.50;;;;;;4904903;29;20028;-77
2023/06/30 08:16:51;;;;;;;7.88;1.40;;;21.90;49.20;;;;;;4899698;29;20031;-77
2023/06/30 08:19:17;;;;;;;4.75;1.38;;;21.60;49.90;;;;;;4900626;29;20154;-80
2023/06/30 08:21:42;;;;;;;5.82;1.40;;;21.40;50.80;;;;;;4886818;29;20147;-79
2023/06/30 08:24:08;;;;;;;5.55;1.60;;;22.90;49.30;;;;;;4903720;29;20115;-80
2023/06/30 08:26:33;;;;;;;5.97;1.60;;;23.70;46.10;;;;;;4895026;29;20102;-80
2023/06/30 08:28:59;;;;;;;4.20;1.75;;;24.20;45.40;;;;;;4899173;29;20128;-80
2023/06/30 08:31:25;;;;;;;3.13;1.40;;;23.90;46.00;;;;;;4900268;29;20496;-80
2023/06/30 08:33:50;;;;;;;4.78;1.58;;;23.90;45.70;;;;;;4899177;29;20028;-80
2023/06/30 08:36:16;;;;;;;5.95;1.80;;;23.80;46.30;;;;;;4900637;29;20649;-80
2023/06/30 08:38:42;;;;;;;4.45;1.80;;;24.30;45.50;;;;;;4897006;29;20064;-80
2023/06/30 08:41:08;;;;;;;5.10;1.88;;;25.70;43.20;;;;;;4902114;29;20703;-80
2023/06/30 08:43:36;;;;;;;7.47;1.90;;;27.40;40.60;;;;;;4904369;29;20479;-81
2023/06/30 08:46:04;;;;;;;4.97;1.40;;;28.40;38.40;;;;;;4899855;29;20032;-81
2023/06/30 08:48:31;;;;;;;4.32;1.30;;;29.50;36.70;;;;;;4875173;29;20029;-81
2023/06/30 08:50:58;;;;;;;3.80;1.40;;;29.20;36.50;;;;;;4899753;29;20056;-81
2023/06/30 08:53:26;;;;;;;3.22;1.23;;;28.90;36.20;;;;;;4899775;29;20457;-81
2023/06/30 08:55:54;;;;;;;5.63;1.40;;;28.60;36.80;;;;;;4884013;29;20020;-81
2023/06/30 08:58:20;;;;;;;3.65;1.40;;;27.40;37.70;;;;;;4899027;29;20028;-81
2023/06/30 09:00:46;;;;;;;3.03;1.45;;;26.80;39.30;;;;;;4899303;29;20092;-81
2023/06/30 09:03:11;;;;;;;3.85;1.35;;;26.20;40.90;;;;;;4898390;29;20511;-81
2023/06/30 09:05:40;;;;;;;6.35;1.20;;;25.40;42.20;;;;;;4900377;29;20535;-81
2023/06/30 09:08:33;;;;;;;5.45;1.60;;;24.80;43.90;;;;;;4881740;29;20050;-81
2023/06/30 09:11:04;;;;;;;5.15;1.40;;;24.10;43.80;;;;;;4881596;29;20127;-87
2023/06/30 09:13:30;;;;;;;4.15;1.25;;;23.70;45.50;;;;;;4897736;29;20028;-78
2023/06/30 09:15:58;;;;;;;5.00;1.48;;;23.30;46.70;;;;;;4882630;29;20029;-78
2023/06/30 09:18:24;;;;;;;6.10;1.30;;;23.30;46.90;;;;;;4897646;29;20037;-78
2023/06/30 09:20:50;;;;;;;3.85;1.00;;;23.50;46.80;;;;;;4882564;29;20029;-79
2023/06/30 09:23:17;;;;;;;4.38;1.30;;;23.80;46.90;;;;;;4897507;29;20115;-78
2023/06/30 09:25:42;;;;;;;4.43;1.30;;;23.30;47.40;;;;;;4900320;29;20115;-78
2023/06/30 09:28:12;;;;;;;7.53;1.40;;;23.00;48.00;;;;;;4900361;29;20060;-78
2023/06/30 09:30:40;;;;;;;5.45;1.40;;;22.60;49.40;;;;;;4883417;29;20862;-78
2023/06/30 09:33:07;;;;;;;3.97;1.27;;;22.50;49.80;;;;;;4904841;29;20084;-78
2023/06/30 09:35:41;;;;;;;4.68;1.40;;;22.30;51.30;;;;;;4891877;29;20122;-78
2023/06/30 09:38:14;;;;;;;3.08;1.10;;;22.30;50.70;;;;;;4898051;29;20485;-78
2023/06/30 09:40:50;;;;;;;3.58;1.10;;;22.20;50.60;;;;;;4898855;29;20523;-78
2023/06/30 09:43:20;;;;;;;4.28;1.35;;;22.20;49.90;;;;;;4901065;29;20033;-78
2023/06/30 09:45:52;;;;;;;3.78;1.38;;;22.50;50.10;;;;;;4884177;29;20407;-78
2023/06/30 09:48:18;;;;;;;;;;;22.60;50.40;;;;;;4886560;29;20038;-79
2023/06/30 09:50:43;;;;;;;3.55;1.48;;;22.80;50.30;;;;;;4907780;29;20443;-78
2023/06/30 09:53:09;;;;;;;6.25;1.63;;;22.80;50.10;;;;;;4912841;29;20056;-78
2023/06/30 09:55:49;;;;;;;3.17;1.30;;;22.90;49.80;;;;;;4909519;29;21104;-78
2023/06/30 09:58:16;;;;;;;2.92;1.00;;;23.00;48.80;;;;;;4911793;29;20032;-78
2023/06/30 10:00:43;;;;;;;3.65;1.20;;;22.90;49.10;;;;;;4907847;29;20029;-78
2023/06/30 10:03:09;;;;;;;3.13;1.10;;;22.80;47.90;;;;;;4902518;29;20052;-78
2023/06/30 10:05:37;;;;;;;3.20;1.10;;;22.40;50.70;;;;;;4903925;29;20036;-79
2023/06/30 10:08:03;;;;;;;4.13;1.30;;;22.10;50.90;;;;;;4903342;29;20377;-78
2023/06/30 10:10:29;;;;;;;2.80;1.40;;;21.80;51.10;;;;;;4902275;29;20040;-78
2023/06/30 10:12:58;;;;;;;3.78;1.45;;;21.80;52.30;;;;;;4902735;29;20113;-78
2023/06/30 10:15:25;;;;;;;4.60;1.70;;;21.70;53.10;;;;;;4903245;29;20052;-78
2023/06/30 10:17:57;;;;;;;5.22;1.88;;;21.50;55.10;;;;;;4878529;29;20047;-78
2023/06/30 10:20:24;;;;;;;3.28;1.45;;;21.30;55.60;;;;;;4901218;29;20088;-79
2023/06/30 10:22:51;;;;;;;4.30;1.58;;;21.30;56.00;;;;;;4908978;29;20032;-79
2023/06/30 10:25:18;;;;;;;6.15;2.58;;;21.20;56.10;;;;;;4903076;29;20040;-79
2023/06/30 10:27:47;;;;;;;8.45;2.00;;;21.10;57.00;;;;;;4908745;29;20052;-78
2023/06/30 10:30:14;;;;;;;7.30;2.33;;;21.10;58.40;;;;;;4900919;29;20036;-79
2023/06/30 10:32:40;;;;;;;9.55;3.55;;;21.30;57.40;;;;;;4899258;29;20028;-79
2023/06/30 10:35:08;;;;;;;9.10;2.97;;;21.70;57.90;;;;;;4900032;29;20052;-79
2023/06/30 10:37:34;;;;;;;5.00;1.92;;;22.20;57.90;;;;;;4902068;29;20547;-79
2023/06/30 10:40:00;;;;;;;3.83;1.80;;;22.30;56.70;;;;;;4898948;29;20036;-79
2023/06/30 10:42:26;;;;;;;6.53;1.95;;;22.60;58.00;;;;;;4901729;29;20172;-79
2023/06/30 10:44:59;;;;;;;6.28;2.00;;;22.80;54.70;;;;;;4902394;29;20102;-78
2023/06/30 10:47:27;;;;;;;;;;;22.90;52.90;;;;;;4899899;29;20032;-79
2023/06/30 10:49:53;;;;;;;3.60;1.27;;;22.80;52.70;;;;;;4905716;29;19922;-79
2023/06/30 10:52:28;;;;;;;6.35;1.80;;;22.60;53.00;;;;;;4884045;29;20028;-79
2023/06/30 10:54:54;;;;;;;4.22;1.60;;;22.60;53.20;;;;;;4902085;29;20640;-78
2023/06/30 10:57:21;;;;;;;6.35;1.88;;;22.30;53.80;;;;;;4901021;29;20030;-79
2023/06/30 11:00:01;;;;;;;4.18;1.50;;;22.10;53.20;;;;;;4885318;29;20463;-79
2023/06/30 11:02:31;;;;;;;4.00;1.65;;;22.10;54.80;;;;;;4900721;29;20053;-79
2023/06/30 11:05:18;;;;;;;4.13;2.15;;;22.10;54.50;;;;;;4900958;29;20021;-79
2023/06/30 11:07:53;;;;;;;4.65;1.73;;;22.10;53.60;;;;;;4899725;29;20028;-79
2023/06/30 11:10:26;;;;;;;4.68;1.88;;;22.00;53.90;;;;;;4884656;29;20496;-79
2023/06/30 11:12:56;;;;;;;4.50;1.83;;;22.00;54.40;;;;;;4884634;29;20516;-79
2023/06/30 11:15:46;;;;;;;3.05;1.38;;;22.20;54.20;;;;;;4899875;29;20045;-79
2023/06/30 11:18:24;;;;;;;4.25;1.80;;;22.30;53.40;;;;;;4902300;29;20033;-79
2023/06/30 11:20:59;;;;;;;3.83;1.95;;;22.40;52.70;;;;;;4907603;29;20022;-79
2023/06/30 11:23:28;;;;;;;5.40;1.85;;;22.60;53.20;;;;;;4899397;29;20047;-82
2023/06/30 11:25:57;;;;;;;4.22;1.60;;;22.60;50.00;;;;;;4869708;29;20024;-83
2023/06/30 11:28:26;;;;;;;2.92;1.60;;;22.50;49.80;;;;;;4877486;29;20041;-76
2023/06/30 11:30:52;;;;;;;4.25;1.92;;;22.30;50.10;;;;;;4904635;29;20095;-76
2023/06/30 11:33:18;;;;;;;5.65;2.00;;;22.20;51.30;;;;;;4898832;29;20032;-78
2023/06/30 11:35:50;;;;;;;5.68;1.80;;;22.00;51.90;;;;;;4877348;29;20107;-79
2023/06/30 11:38:16;;;;;;;5.72;1.75;;;21.90;51.80;;;;;;4903185;29;20115;-77
2023/06/30 11:40:49;;;;;;;7.97;1.85;;;21.70;53.50;;;;;;4883500;29;20083;-76
2023/06/30 11:43:17;;;;;;;6.35;1.60;;;21.40;53.70;;;;;;4901131;29;20058;-76
2023/06/30 11:45:43;;;;;;;6.40;2.03;;;21.30;53.10;;;;;;4899529;29;20025;-76
2023/06/30 11:48:11;;;;;;;5.68;2.30;;;21.20;53.90;;;;;;4883875;29;20032;-76
2023/06/30 11:50:37;;;;;;;5.68;1.95;;;21.10;55.00;;;;;;4900793;29;20032;-76
2023/06/30 11:53:03;;;;;;;5.05;2.05;;;21.00;55.50;;;;;;4900932;29;20039;-76
2023/06/30 11:55:28;;;;;;;4.40;1.80;;;21.00;55.60;;;;;;4900512;29;20060;-76
2023/06/30 11:57:54;;;;;;;4.40;1.90;;;21.00;56.60;;;;;;4900967;29;20100;-74
2023/06/30 12:00:22;;;;;;;4.85;1.80;;;21.00;56.00;;;;;;4889457;29;20020;-75
2023/06/30 12:02:50;;;;;;;3.80;1.85;;;21.10;56.30;;;;;;4894814;29;20017;-77
2023/06/30 12:05:39;;;;;;;5.35;1.58;;;21.10;56.80;;;;;;4881805;29;20497;-77
2023/06/30 12:08:06;;;;;;;4.95;1.60;;;21.10;56.90;;;;;;4886998;29;20431;-77
2023/06/30 12:10:39;;;;;;;6.10;1.77;;;21.00;57.60;;;;;;4879887;29;20033;-77
2023/06/30 12:13:08;;;;;;;5.03;1.73;;;20.90;59.30;;;;;;4899255;29;20045;-77
2023/06/30 12:15:35;;;;;;;5.68;1.80;;;20.90;58.40;;;;;;4904217;29;20618;-77
2023/06/30 12:18:04;;;;;;;4.20;1.85;;;20.90;58.50;;;;;;4882591;29;20431;-79
2023/06/30 12:20:36;;;;;;;6.20;1.88;;;20.80;58.90;;;;;;4879983;29;20039;-82
2023/06/30 12:23:03;;;;;;;4.18;2.08;;;20.80;58.40;;;;;;4899312;29;20037;-80
2023/06/30 12:25:31;;;;;;;4.05;1.60;;;20.90;58.10;;;;;;4896286;29;20037;-80
2023/06/30 12:27:56;;;;;;;3.65;1.80;;;21.00;58.10;;;;;;4880465;29;20131;-80
2023/06/30 12:30:23;;;;;;;2.95;1.60;;;21.00;58.00;;;;;;4899903;29;20112;-81
2023/06/30 12:32:59;;;;;;;4.15;1.65;;;20.90;58.40;;;;;;4898890;29;20033;-81
2023/06/30 12:35:30;;;;;;;5.30;1.77;;;20.70;59.00;;;;;;4904385;29;20422;-80
2023/06/30 12:37:56;;;;;;;3.53;1.58;;;20.80;59.20;;;;;;4881199;29;20785;-80
2023/06/30 12:40:22;;;;;;;3.60;1.60;;;20.90;59.20;;;;;;4897642;29;20024;-80
2023/06/30 12:42:48;;;;;;;4.47;1.50;;;21.20;59.00;;;;;;4897378;29;20032;-81
2023/06/30 12:45:15;;;;;;;4.28;1.50;;;21.30;58.50;;;;;;4898535;29;20025;-81
2023/06/30 12:47:40;;;;;;;4.30;1.50;;;21.50;58.30;;;;;;4883123;29;20036;-81
2023/06/30 12:50:06;;;;;;;3.63;1.65;;;21.70;57.40;;;;;;4882309;29;20119;-81
2023/06/30 12:52:33;;;;;;;2.78;1.30;;;21.70;57.10;;;;;;4899395;29;20049;-80
2023/06/30 12:55:01;;;;;;;3.15;1.25;;;21.60;57.20;;;;;;4889188;29;20029;-81
2023/06/30 12:57:28;;;;;;;4.38;1.70;;;21.40;58.30;;;;;;4871605;29;20031;-83
2023/06/30 12:59:53;;;;;;;3.38;1.35;;;21.40;58.40;;;;;;4874801;29;20082;-82
2023/06/30 13:02:19;;;;;;;2.92;1.38;;;21.30;58.50;;;;;;4891532;29;20488;-83
2023/06/30 13:04:45;;;;;;;4.18;1.48;;;21.20;59.20;;;;;;4879983;29;20032;-82
2023/06/30 13:07:10;;;;;;;4.40;1.55;;;21.30;59.80;;;;;;4864694;29;20075;-82
2023/06/30 13:09:36;;;;;;;2.80;1.20;;;21.30;60.40;;;;;;4896972;29;20025;-82
2023/06/30 13:12:02;;;;;;;2.70;1.23;;;21.50;59.60;;;;;;4898354;29;20032;-82
2023/06/30 13:14:28;;;;;;;2.58;1.30;;;21.30;58.90;;;;;;4898540;29;20040;-82
2023/06/30 13:16:53;;;;;;;2.65;0.95;;;21.10;59.70;;;;;;4900158;29;20032;-81
2023/06/30 13:19:19;;;;;;;1.73;1.02;;;21.00;60.00;;;;;;4898587;29;20043;-82
2023/06/30 13:21:45;;;;;;;4.95;1.15;;;20.90;60.20;;;;;;4900474;29;20029;-83
2023/06/30 13:24:11;;;;;;;8.27;1.50;;;20.80;61.20;;;;;;4899852;29;20024;-82
2023/06/30 13:26:37;;;;;;;4.28;1.30;;;20.80;61.60;;;;;;4899095;29;20021;-82
2023/06/30 13:29:03;;;;;;;2.42;1.23;;;20.70;63.70;;;;;;4899789;29;20092;-82
2023/06/30 13:31:29;;;;;;;4.68;1.30;;;20.70;63.80;;;;;;4900720;29;20077;-83
2023/06/30 13:33:54;;;;;;;2.78;1.20;;;20.80;64.30;;;;;;4899594;29;20044;-83
2023/06/30 13:36:20;;;;;;;2.42;0.93;;;21.00;63.50;;;;;;4899937;29;20021;-82
2023/06/30 13:38:46;;;;;;;2.42;1.10;;;21.10;62.70;;;;;;4914278;29;20033;-83
2023/06/30 13:41:12;;;;;;;5.97;1.42;;;21.00;62.70;;;;;;4899197;29;20523;-82
2023/06/30 13:43:39;;;;;;;2.80;1.10;;;21.00;63.10;;;;;;4900016;29;20120;-82
2023/06/30 13:46:05;;;;;;;5.68;1.20;;;21.00;63.70;;;;;;4898431;29;20025;-82
2023/06/30 13:48:31;;;;;;;4.68;1.90;;;20.90;63.30;;;;;;4883190;29;20028;-82
2023/06/30 13:50:57;;;;;;;3.67;1.40;;;20.90;63.50;;;;;;4893647;29;20112;-82
2023/06/30 13:53:23;;;;;;;6.13;1.30;;;20.80;63.50;;;;;;4886461;29;20095;-82
2023/06/30 13:55:48;;;;;;;3.13;1.27;;;20.80;63.40;;;;;;4897857;29;20032;-82
2023/06/30 13:58:14;;;;;;;3.83;1.17;;;20.90;63.20;;;;;;4871014;29;20040;-83
2023/06/30 14:00:40;;;;;;;1.65;0.88;;;20.90;62.50;;;;;;4898375;29;20074;-82
2023/06/30 14:03:06;;;;;;;2.75;0.90;;;21.00;62.40;;;;;;4899572;29;20052;-82
2023/06/30 14:05:32;;;;;;;4.05;1.27;;;21.00;62.80;;;;;;4898623;29;20033;-82
2023/06/30 14:07:58;;;;;;;4.60;1.90;;;20.80;63.90;;;;;;4913813;29;20491;-80
2023/06/30 14:10:24;;;;;;;5.15;1.70;;;20.80;64.40;;;;;;4892723;29;20036;-83
2023/06/30 14:12:50;;;;;;;2.95;1.48;;;20.80;65.30;;;;;;4894802;29;20029;-82
2023/06/30 14:15:16;;;;;;;3.40;1.30;;;20.70;66.20;;;;;;4895858;29;20035;-79
2023/06/30 14:17:41;;;;;;;3.58;1.30;;;20.70;66.20;;;;;;4886930;29;20029;-85
2023/06/30 14:20:07;;;;;;;4.53;1.42;;;20.80;66.40;;;;;;4899562;29;20025;-87
2023/06/30 14:22:33;;;;;;;3.55;1.48;;;20.80;66.30;;;;;;4899959;29;20032;-85
2023/06/30 14:24:59;;;;;;;5.18;1.65;;;20.80;66.40;;;;;;4881330;29;20036;-89
2023/06/30 14:27:24;;;;;;;4.22;1.60;;;20.80;66.40;;;;;;4884375;29;20039;-80
2023/06/30 14:29:50;;;;;;;4.60;1.65;;;20.90;65.90;;;;;;4899947;29;20445;-83
2023/06/30 14:32:17;;;;;;;3.28;1.50;;;21.10;65.10;;;;;;4912271;29;20044;-81
2023/06/30 14:34:43;;;;;;;4.40;1.70;;;21.20;64.30;;;;;;4885270;29;20033;-83
2023/06/30 14:37:09;;;;;;;5.22;1.50;;;21.20;64.90;;;;;;4896347;29;20029;-78
2023/06/30 14:39:34;;;;;;;3.20;1.38;;;21.00;65.70;;;;;;4887541;29;20032;-82
2023/06/30 14:42:00;;;;;;;3.45;1.33;;;20.90;65.80;;;;;;4895921;29;20068;-81
2023/06/30 14:44:25;;;;;;;3.58;1.70;;;20.80;65.80;;;;;;4899462;29;20040;-80
2023/06/30 14:46:51;;;;;;;3.05;1.45;;;20.70;66.00;;;;;;4902384;29;20025;-81
2023/06/30 14:49:17;;;;;;;4.40;1.30;;;20.70;66.70;;;;;;4884989;29;20051;-82
2023/06/30 14:51:43;;;;;;;3.28;1.25;;;20.50;67.00;;;;;;4902356;29;20433;-81
2023/06/30 14:54:08;;;;;;;5.00;1.52;;;20.30;67.40;;;;;;4901486;29;20032;-80
2023/06/30 14:56:34;;;;;;;4.32;1.60;;;20.20;68.00;;;;;;4882778;29;20543;-80
2023/06/30 14:59:00;;;;;;;4.20;1.58;;;20.30;68.20;;;;;;4895625;29;20052;-80
2023/06/30 15:01:25;;;;;;;5.03;1.63;;;20.30;68.00;;;;;;4884484;29;20436;-80
2023/06/30 15:03:51;;;;;;;3.55;1.60;;;20.30;68.10;;;;;;4884620;29;20041;-79
2023/06/30 15:06:17;;;;;;;5.60;1.65;;;20.30;68.20;;;;;;4883231;29;20029;-80
2023/06/30 15:08:42;;;;;;;4.25;1.65;;;20.30;69.00;;;;;;4898865;29;20033;-80
2023/06/30 15:11:08;;;;;;;3.15;1.55;;;20.30;68.80;;;;;;4903404;29;20926;-84
2023/06/30 15:13:33;;;;;;;4.30;1.73;;;20.30;69.60;;;;;;4885576;29;20032;-80
2023/06/30 15:15:59;;;;;;;6.25;1.77;;;20.30;70.00;;;;;;4886865;29;20052;-80
2023/06/30 15:18:25;;;;;;;2.80;1.40;;;20.30;70.80;;;;;;4867843;29;20029;-80
2023/06/30 15:20:50;;;;;;;4.10;1.60;;;20.30;71.00;;;;;;4901145;29;20526;-81
2023/06/30 15:23:16;;;;;;;4.47;1.80;;;20.30;70.70;;;;;;4902038;29;20040;-80
2023/06/30 15:25:41;;;;;;;4.47;1.77;;;20.20;70.80;;;;;;4897909;29;20088;-79
2023/06/30 15:28:07;;;;;;;3.70;1.67;;;20.30;70.50;;;;;;4894579;29;20033;-80
2023/06/30 15:30:33;;;;;;;3.95;1.58;;;20.40;70.40;;;;;;4872408;29;20076;-80
2023/06/30 15:32:58;;;;;;;3.20;1.60;;;20.40;69.70;;;;;;4892410;29;20029;-80
2023/06/30 15:35:25;;;;;;;4.05;1.50;;;20.40;69.50;;;;;;4912142;29;20550;-81
2023/06/30 15:37:50;;;;;;;2.58;1.27;;;20.40;69.70;;;;;;4891626;29;20539;-80
2023/06/30 15:40:16;;;;;;;2.92;1.35;;;20.30;70.00;;;;;;4901348;29;20032;-80
2023/06/30 15:42:42;;;;;;;3.22;1.33;;;20.30;70.20;;;;;;4888841;29;20059;-81
2023/06/30 15:45:09;;;;;;;2.97;1.42;;;20.30;70.30;;;;;;4905821;29;20474;-80
2023/06/30 15:47:34;;;;;;;4.45;1.20;;;20.30;70.30;;;;;;4893987;29;20032;-81
2023/06/30 15:50:00;;;;;;;2.78;1.30;;;20.20;71.00;;;;;;4881972;29;20507;-81
2023/06/30 15:52:26;;;;;;;3.13;1.30;;;20.10;71.00;;;;;;4883339;29;20033;-80
2023/06/30 15:55:12;;;;;;;5.60;1.60;;;20.00;71.80;;;;;;4897051;29;20024;-80
2023/06/30 15:57:38;;;;;;;3.28;1.20;;;20.10;71.70;;;;;;4899327;29;20492;-81
2023/06/30 16:00:06;;;;;;;3.25;1.30;;;20.00;71.90;;;;;;4896000;29;20104;-81
2023/06/30 16:02:31;;;;;;;3.28;1.25;;;20.10;71.70;;;;;;4876972;29;20029;-85
2023/06/30 16:04:57;;;;;;;3.22;1.27;;;20.10;71.90;;;;;;4894260;29;20031;-78
2023/06/30 16:07:23;;;;;;;2.58;1.13;;;20.20;71.80;;;;;;4886177;29;20040;-89
2023/06/30 16:09:48;;;;;;;2.75;1.20;;;20.10;72.00;;;;;;4899029;29;20104;-86
2023/06/30 16:12:14;;;;;;;2.58;1.17;;;20.10;72.00;;;;;;4898061;29;20072;-83
2023/06/30 16:14:40;;;;;;;2.58;1.88;;;20.20;71.90;;;;;;4883352;29;20044;-77
2023/06/30 16:17:05;;;;;;;2.92;1.30;;;20.30;71.40;;;;;;4900022;29;20043;-86
2023/06/30 16:19:31;;;;;;;4.55;1.50;;;20.30;71.40;;;;;;4883663;29;20020;-89
2023/06/30 16:21:56;;;;;;;3.13;1.33;;;20.50;71.40;;;;;;4900969;29;20037;-90
2023/06/30 16:24:22;;;;;;;4.25;1.50;;;20.50;70.60;;;;;;4900842;29;20036;-91
2023/06/30 16:26:48;;;;;;;4.85;1.52;;;20.40;70.60;;;;;;4901836;29;20029;-89
2023/06/30 16:29:13;;;;;;;3.25;1.55;;;20.40;70.70;;;;;;4899221;29;20020;-91
2023/06/30 16:31:39;;;;;;;2.83;1.52;;;20.40;70.80;;;;;;4902061;29;20075;-91
2023/06/30 16:34:04;;;;;;;3.53;1.45;;;20.30;71.00;;;;;;4878481;29;20033;-89
2023/06/30 16:36:31;;;;;;;3.22;1.42;;;20.30;71.00;;;;;;4899876;29;20077;-89
2023/06/30 16:39:00;;;;;;;3.72;1.67;;;20.30;71.30;;;;;;4883524;29;20092;-87
2023/06/30 16:41:26;;;;;;;4.32;1.48;;;20.20;71.30;;;;;;4901201;29;20033;-87
2023/06/30 16:43:52;;;;;;;3.65;1.20;;;20.20;71.70;;;;;;4897887;29;20092;-81
2023/06/30 16:46:20;;;;;;;3.50;1.83;;;20.30;71.80;;;;;;4899249;29;20495;-86
2023/06/30 16:48:46;;;;;;;3.92;1.40;;;20.20;72.00;;;;;;4899438;29;20391;-78
2023/06/30 16:51:11;;;;;;;2.55;1.40;;;20.20;72.10;;;;;;4895027;29;20032;-77
2023/06/30 16:53:37;;;;;;;4.35;1.60;;;20.10;72.10;;;;;;4881548;29;20025;-84
2023/06/30 16:56:03;;;;;;;2.75;1.38;;;20.10;72.40;;;;;;4898755;29;20088;-83
2023/06/30 16:58:29;;;;;;;2.55;1.17;;;20.10;72.40;;;;;;4900122;29;20035;-81
2023/06/30 17:00:55;;;;;;;3.33;1.50;;;20.20;72.20;;;;;;4883141;29;20598;-84
2023/06/30 17:03:21;;;;;;;2.92;1.45;;;20.20;72.20;;;;;;4883037;29;20068;-85
2023/06/30 17:05:47;;;;;;;4.43;1.50;;;20.20;72.30;;;;;;4898622;29;20149;-85
2023/06/30 17:08:12;;;;;;;3.50;1.55;;;20.20;72.30;;;;;;4900581;29;20052;-85
2023/06/30 17:10:38;;;;;;;3.10;1.40;;;20.30;72.10;;;;;;4899189;29;20044;-85
2023/06/30 17:13:05;;;;;;;5.18;1.70;;;20.30;72.20;;;;;;4899879;29;20072;-84
2023/06/30 17:15:31;;;;;;;6.28;1.95;;;20.40;71.90;;;;;;4898409;29;20029;-83